Time,TemperatureF,DewpointF,PressureIn,WindDirection,WindDirectionDegrees,WindSpeedMPH,WindSpeedGustMPH,Humidity,HourlyPrecipIn,Conditions,Clouds,dailyrainin,SolarRadiationWatts/m^2,SoftwareType,DateUTC
2013-04-25 00:12:00,73.0,68.0,30.38,East,83,15.0,23.0,83,0.00,,,0.00,0.000000,,2013-04-25 10:12:00,
2013-04-25 00:22:00,73.0,68.0,30.38,East,83,15.0,23.0,83,0.00,,,0.00,0.000000,,2013-04-25 10:22:00,
2013-04-25 00:32:00,73.0,68.0,30.38,East,83,15.0,23.0,83,0.00,,,0.00,0.000000,,2013-04-25 10:32:00,
2013-04-25 00:42:00,73.0,68.0,30.38,East,83,15.0,23.0,83,0.00,,,0.00,0.000000,,2013-04-25 10:42:00,
2013-04-25 00:52:00,73.0,68.0,30.38,East,83,15.0,23.0,83,0.00,,,0.00,0.000000,,2013-04-25 10:52:00,
2013-04-25 01:22:00,71.0,65.0,30.37,East,95,13.0,22.0,82,0.00,,,0.00,0.000000,,2013-04-25 11:22:00,
2013-04-25 01:32:00,71.0,65.0,30.37,East,95,13.0,22.0,82,0.00,,,0.00,0.000000,,2013-04-25 11:32:00,
2013-04-25 01:42:00,71.0,65.0,30.37,East,95,13.0,22.0,82,0.00,,,0.00,0.000000,,2013-04-25 11:42:00,
2013-04-25 01:51:00,71.0,65.0,30.37,East,95,13.0,22.0,82,0.00,,,0.00,0.000000,,2013-04-25 11:51:00,
2013-04-25 02:12:00,71.0,65.0,30.35,East,92,13.0,22.0,80,0.00,,,-99.99,0.000000,,2013-04-25 12:12:00,
2013-04-25 02:21:00,71.0,65.0,30.35,East,92,13.0,22.0,80,0.00,,,-99.99,0.000000,,2013-04-25 12:21:00,
2013-04-25 02:31:00,71.0,65.0,30.35,East,92,13.0,22.0,80,0.00,,,-99.99,0.000000,,2013-04-25 12:31:00,
2013-04-25 02:41:00,71.0,65.0,30.35,East,92,13.0,22.0,80,0.00,,,-99.99,0.000000,,2013-04-25 12:41:00,
2013-04-25 02:51:00,71.0,65.0,30.35,East,92,13.0,22.0,80,0.00,,,-99.99,0.000000,,2013-04-25 12:51:00,
2013-04-25 03:21:00,72.0,66.0,30.33,East,88,13.0,26.0,82,0.00,,,0.00,0.000000,,2013-04-25 13:21:00,
2013-04-25 03:31:00,72.0,66.0,30.33,East,88,13.0,26.0,82,0.00,,,0.00,0.000000,,2013-04-25 13:31:00,
2013-04-25 03:42:00,72.0,66.0,30.33,East,88,13.0,26.0,82,0.00,,,0.00,0.000000,,2013-04-25 13:42:00,
2013-04-25 03:52:00,72.0,66.0,30.33,East,88,13.0,26.0,82,0.00,,,0.00,0.000000,,2013-04-25 13:52:00,
2013-04-25 04:21:00,70.0,64.0,30.32,East,85,13.0,22.0,80,0.00,,,0.00,0.000000,,2013-04-25 14:21:00,
2013-04-25 04:32:00,70.0,64.0,30.32,East,85,13.0,22.0,80,0.00,,,0.00,0.000000,,2013-04-25 14:32:00,
2013-04-25 04:42:00,70.0,64.0,30.32,East,85,13.0,22.0,80,0.00,,,0.00,0.000000,,2013-04-25 14:42:00,
2013-04-25 04:51:00,70.0,64.0,30.32,East,85,13.0,22.0,80,0.00,,,0.00,0.000000,,2013-04-25 14:51:00,
2013-04-25 05:21:00,70.0,62.0,30.32,East,82,13.0,26.0,76,0.00,,,0.00,0.000000,,2013-04-25 15:21:00,
2013-04-25 05:33:00,70.0,62.0,30.32,East,82,13.0,26.0,76,0.00,,,0.00,0.000000,,2013-04-25 15:33:00,
2013-04-25 05:42:00,70.0,62.0,30.32,East,82,13.0,26.0,76,0.00,,,0.00,0.000000,,2013-04-25 15:42:00,
2013-04-25 05:52:00,70.0,62.0,30.32,East,82,13.0,26.0,76,0.00,,,0.00,0.000000,,2013-04-25 15:52:00,
2013-04-25 06:13:00,70.0,63.0,30.34,East,87,12.0,18.0,79,0.00,,,0.00,0.000000,,2013-04-25 16:13:00,
2013-04-25 06:24:00,70.0,63.0,30.34,East,87,12.0,18.0,79,0.00,,,0.00,0.000000,,2013-04-25 16:24:00,
2013-04-25 06:32:00,70.0,63.0,30.34,East,87,12.0,18.0,79,0.00,,,0.00,0.000000,,2013-04-25 16:32:00,
2013-04-25 06:42:00,70.0,63.0,30.34,East,87,12.0,18.0,79,0.00,,,0.00,0.000000,,2013-04-25 16:42:00,
2013-04-25 06:52:00,70.0,63.0,30.34,East,87,12.0,18.0,79,0.00,,,0.00,0.000000,,2013-04-25 16:52:00,
2013-04-25 06:53:00,71.0,64.0,30.34,East,81,16.0,25.0,78,0.00,,,0.00,0.000000,,2013-04-25 16:53:00,
2013-04-25 07:11:00,71.0,64.0,30.34,East,81,16.0,25.0,78,0.00,,,0.00,0.000000,,2013-04-25 17:11:00,
2013-04-25 07:22:00,71.0,64.0,30.34,East,81,16.0,25.0,78,0.00,,,0.00,0.000000,,2013-04-25 17:22:00,
2013-04-25 07:32:00,71.0,64.0,30.34,East,81,16.0,25.0,78,0.00,,,0.00,0.000000,,2013-04-25 17:32:00,
2013-04-25 07:42:00,71.0,64.0,30.34,East,81,16.0,25.0,78,0.00,,,0.00,0.000000,,2013-04-25 17:42:00,
2013-04-25 08:11:00,75.0,65.0,30.35,East,86,18.0,27.0,72,0.00,,,0.00,60.000000,,2013-04-25 18:11:00,
2013-04-25 08:21:00,75.0,65.0,30.35,East,86,18.0,27.0,72,0.00,,,0.00,60.000000,,2013-04-25 18:21:00,
2013-04-25 08:32:00,75.0,65.0,30.35,East,86,18.0,27.0,72,0.00,,,0.00,60.000000,,2013-04-25 18:32:00,
2013-04-25 08:42:00,75.0,65.0,30.35,East,86,18.0,27.0,72,0.00,,,0.00,60.000000,,2013-04-25 18:42:00,
2013-04-25 08:52:00,75.0,65.0,30.35,East,86,18.0,27.0,72,0.00,,,0.00,60.000000,,2013-04-25 18:52:00,
2013-04-25 09:12:00,75.0,65.0,30.37,East,89,19.0,30.0,71,0.00,,,0.00,305.000000,,2013-04-25 19:12:00,
2013-04-25 09:21:00,75.0,65.0,30.37,East,89,19.0,30.0,71,0.00,,,0.00,305.000000,,2013-04-25 19:21:00,
2013-04-25 09:31:00,75.0,65.0,30.37,East,89,19.0,30.0,71,0.00,,,0.00,305.000000,,2013-04-25 19:31:00,
2013-04-25 09:41:00,75.0,65.0,30.37,East,89,19.0,30.0,71,0.00,,,0.00,305.000000,,2013-04-25 19:41:00,
2013-04-25 09:52:00,75.0,65.0,30.37,East,89,19.0,30.0,71,0.00,,,0.00,305.000000,,2013-04-25 19:52:00,
2013-04-25 10:22:00,77.0,68.0,30.37,East,85,20.0,31.0,73,0.00,,,0.00,598.000000,,2013-04-25 20:22:00,
2013-04-25 10:32:00,77.0,68.0,30.37,East,85,20.0,31.0,73,0.00,,,0.00,598.000000,,2013-04-25 20:32:00,
2013-04-25 10:42:00,77.0,68.0,30.37,East,85,20.0,31.0,73,0.00,,,0.00,598.000000,,2013-04-25 20:42:00,
2013-04-25 10:51:00,77.0,68.0,30.37,East,85,20.0,31.0,73,0.00,,,0.00,598.000000,,2013-04-25 20:51:00,
2013-04-25 11:11:00,77.0,66.0,30.36,East,82,23.0,34.0,69,0.00,,,0.00,656.000000,,2013-04-25 21:11:00,
2013-04-25 11:21:00,77.0,66.0,30.36,East,82,23.0,34.0,69,0.00,,,0.00,656.000000,,2013-04-25 21:21:00,
2013-04-25 11:33:00,77.0,66.0,30.36,East,82,23.0,34.0,69,0.00,,,0.00,656.000000,,2013-04-25 21:33:00,
2013-04-25 11:42:00,77.0,66.0,30.36,East,82,23.0,34.0,69,0.00,,,0.00,656.000000,,2013-04-25 21:42:00,
2013-04-25 11:52:00,77.0,66.0,30.36,East,82,23.0,34.0,69,0.00,,,0.00,656.000000,,2013-04-25 21:52:00,
2013-04-25 12:22:00,77.0,65.0,30.36,East,94,21.0,34.0,66,0.00,,,-99.99,983.000000,,2013-04-25 22:22:00,
2013-04-25 12:32:00,77.0,65.0,30.36,East,94,21.0,34.0,66,0.00,,,-99.99,983.000000,,2013-04-25 22:32:00,
2013-04-25 12:42:00,77.0,65.0,30.36,East,94,21.0,34.0,66,0.00,,,-99.99,983.000000,,2013-04-25 22:42:00,
2013-04-25 12:52:00,77.0,65.0,30.36,East,94,21.0,34.0,66,0.00,,,-99.99,983.000000,,2013-04-25 22:52:00,
2013-04-25 13:12:00,78.0,62.0,30.33,East,95,25.0,36.0,59,0.00,,,0.00,1186.000000,,2013-04-25 23:12:00,
2013-04-25 13:22:00,78.0,62.0,30.33,East,95,25.0,36.0,59,0.00,,,0.00,1186.000000,,2013-04-25 23:22:00,
2013-04-25 13:32:00,78.0,62.0,30.33,East,95,25.0,36.0,59,0.00,,,0.00,1186.000000,,2013-04-25 23:32:00,
2013-04-25 13:41:00,78.0,62.0,30.33,East,95,25.0,36.0,59,0.00,,,0.00,1186.000000,,2013-04-25 23:41:00,
2013-04-25 13:52:00,78.0,62.0,30.33,East,95,25.0,36.0,59,0.00,,,0.00,1186.000000,,2013-04-25 23:52:00,
2013-04-25 14:21:00,78.0,65.0,30.31,East,91,23.0,39.0,64,0.00,,,0.00,1213.000000,,2013-04-26 00:21:00,
2013-04-25 14:31:00,78.0,65.0,30.31,East,91,23.0,39.0,64,0.00,,,0.00,1213.000000,,2013-04-26 00:31:00,
2013-04-25 14:41:00,78.0,65.0,30.31,East,91,23.0,39.0,64,0.00,,,0.00,1213.000000,,2013-04-26 00:41:00,
2013-04-25 14:51:00,78.0,65.0,30.31,East,91,23.0,39.0,64,0.00,,,0.00,1213.000000,,2013-04-26 00:51:00,
2013-04-25 15:11:00,77.0,66.0,30.30,East,92,22.0,38.0,68,0.00,,,0.00,1145.000000,,2013-04-26 01:11:00,
2013-04-25 15:21:00,77.0,66.0,30.30,East,92,22.0,38.0,68,0.00,,,0.00,1145.000000,,2013-04-26 01:21:00,
2013-04-25 15:31:00,77.0,66.0,30.30,East,92,22.0,38.0,68,0.00,,,0.00,1145.000000,,2013-04-26 01:31:00,
2013-04-25 15:41:00,77.0,66.0,30.30,East,92,22.0,38.0,68,0.00,,,0.00,1145.000000,,2013-04-26 01:41:00,
2013-04-25 15:52:00,77.0,66.0,30.30,East,92,22.0,38.0,68,0.00,,,0.00,1145.000000,,2013-04-26 01:52:00,
2013-04-25 16:11:00,77.0,65.0,30.30,East,91,22.0,34.0,67,0.00,,,0.00,1069.000000,,2013-04-26 02:11:00,
2013-04-25 16:21:00,77.0,65.0,30.30,East,91,22.0,34.0,67,0.00,,,0.00,1069.000000,,2013-04-26 02:21:00,
2013-04-25 16:32:00,77.0,65.0,30.30,East,91,22.0,34.0,67,0.00,,,0.00,1069.000000,,2013-04-26 02:32:00,
2013-04-25 16:42:00,77.0,65.0,30.30,East,91,22.0,34.0,67,0.00,,,0.00,1069.000000,,2013-04-26 02:42:00,
2013-04-25 16:51:00,77.0,65.0,30.30,East,91,22.0,34.0,67,0.00,,,0.00,1069.000000,,2013-04-26 02:51:00,
2013-04-25 17:21:00,77.0,66.0,30.29,East,92,19.0,31.0,68,0.00,,,0.00,877.000000,,2013-04-26 03:21:00,
2013-04-25 17:33:00,77.0,66.0,30.29,East,92,19.0,31.0,68,0.00,,,0.00,877.000000,,2013-04-26 03:33:00,
2013-04-25 17:43:00,77.0,66.0,30.29,East,92,19.0,31.0,68,0.00,,,0.00,877.000000,,2013-04-26 03:43:00,
2013-04-25 17:52:00,77.0,66.0,30.29,East,92,19.0,31.0,68,0.00,,,0.00,877.000000,,2013-04-26 03:52:00,
2013-04-25 18:12:00,73.0,64.0,30.30,East,96,18.0,30.0,74,0.00,,,0.00,574.000000,,2013-04-26 04:12:00,
2013-04-25 18:22:00,73.0,64.0,30.30,East,96,18.0,30.0,74,0.00,,,0.00,574.000000,,2013-04-26 04:22:00,
2013-04-25 18:32:00,73.0,64.0,30.30,East,96,18.0,30.0,74,0.00,,,0.00,574.000000,,2013-04-26 04:32:00,
2013-04-25 18:43:00,73.0,64.0,30.30,East,96,18.0,30.0,74,0.00,,,0.00,574.000000,,2013-04-26 04:43:00,
2013-04-25 18:52:00,73.0,64.0,30.30,East,96,18.0,30.0,74,0.00,,,0.00,574.000000,,2013-04-26 04:52:00,
2013-04-25 19:12:00,72.0,64.0,30.32,East,84,17.0,30.0,77,0.00,,,0.00,106.000000,,2013-04-26 05:12:00,
2013-04-25 19:22:00,72.0,64.0,30.32,East,84,17.0,30.0,77,0.00,,,0.00,106.000000,,2013-04-26 05:22:00,
2013-04-25 19:32:00,72.0,64.0,30.32,East,84,17.0,30.0,77,0.00,,,0.00,106.000000,,2013-04-26 05:32:00,
2013-04-25 19:42:00,72.0,64.0,30.32,East,84,17.0,30.0,77,0.00,,,0.00,106.000000,,2013-04-26 05:42:00,
2013-04-25 19:52:00,72.0,64.0,30.32,East,84,17.0,30.0,77,0.00,,,0.00,106.000000,,2013-04-26 05:52:00,
2013-04-25 20:21:00,73.0,66.0,30.34,ENE,75,19.0,29.0,79,0.00,,,0.00,38.000000,,2013-04-26 06:21:00,
2013-04-25 20:32:00,73.0,66.0,30.34,ENE,75,19.0,29.0,79,0.00,,,0.00,38.000000,,2013-04-26 06:32:00,
2013-04-25 20:41:00,73.0,66.0,30.34,ENE,75,19.0,29.0,79,0.00,,,0.00,38.000000,,2013-04-26 06:41:00,
2013-04-25 20:51:00,73.0,66.0,30.34,ENE,75,19.0,29.0,79,0.00,,,0.00,38.000000,,2013-04-26 06:51:00,
2013-04-25 21:11:00,71.0,65.0,30.35,East,83,20.0,32.0,81,0.00,,,0.00,0.000000,,2013-04-26 07:11:00,
2013-04-25 21:22:00,71.0,65.0,30.35,East,83,20.0,32.0,81,0.00,,,0.00,0.000000,,2013-04-26 07:22:00,
2013-04-25 21:31:00,71.0,65.0,30.35,East,83,20.0,32.0,81,0.00,,,0.00,0.000000,,2013-04-26 07:31:00,
2013-04-25 21:42:00,71.0,65.0,30.35,East,83,20.0,32.0,81,0.00,,,0.00,0.000000,,2013-04-26 07:42:00,
2013-04-25 21:52:00,71.0,65.0,30.35,East,83,20.0,32.0,81,0.00,,,0.00,0.000000,,2013-04-26 07:52:00,
2013-04-25 22:21:00,71.0,64.0,30.36,East,80,17.0,30.0,79,0.00,,,0.00,0.000000,,2013-04-26 08:21:00,
2013-04-25 22:31:00,71.0,64.0,30.36,East,80,17.0,30.0,79,0.00,,,0.00,0.000000,,2013-04-26 08:31:00,
2013-04-25 22:42:00,71.0,64.0,30.36,East,80,17.0,30.0,79,0.00,,,0.00,0.000000,,2013-04-26 08:42:00,
2013-04-25 22:51:00,71.0,64.0,30.36,East,80,17.0,30.0,79,0.00,,,0.00,0.000000,,2013-04-26 08:51:00,
2013-04-25 22:53:00,72.0,65.0,30.36,East,85,13.0,26.0,79,0.00,,,0.00,0.000000,,2013-04-26 08:53:00,
2013-04-25 23:21:00,72.0,65.0,30.36,East,85,13.0,26.0,79,0.00,,,0.00,0.000000,,2013-04-26 09:21:00,
2013-04-25 23:33:00,72.0,65.0,30.36,East,85,13.0,26.0,79,0.00,,,0.00,0.000000,,2013-04-26 09:33:00,
2013-04-25 23:42:00,72.0,65.0,30.36,East,85,13.0,26.0,79,0.00,,,0.00,0.000000,,2013-04-26 09:42:00,